createdAt,value
2022-10-01T00:02:15.435Z,100104.20
2022-10-01T00:04:45.701Z,100104.42
2022-10-01T00:07:16.266Z,100107.96
2022-10-01T00:09:47.421Z,100106.61
2022-10-01T00:12:17.683Z,100106.83
2022-10-01T00:14:47.915Z,100106.15
2022-10-01T00:17:18.174Z,100106.53
2022-10-01T00:19:48.425Z,100109.35
2022-10-01T00:22:19.020Z,100109.75
2022-10-01T00:24:50.183Z,100109.64
2022-10-01T00:27:20.459Z,100108.61
2022-10-01T00:29:50.687Z,100109.70
2022-10-01T00:32:21.010Z,100107.48
2022-10-01T00:34:53.695Z,100108.91
2022-10-01T00:37:23.924Z,100105.96
2022-10-01T00:39:54.283Z,100107.57
2022-10-01T00:42:26.761Z,100106.39
2022-10-01T00:44:57.952Z,100106.77
2022-10-01T00:47:34.779Z,100103.84
2022-10-01T00:50:10.969Z,100104.20
2022-10-01T00:52:44.629Z,100104.94
2022-10-01T00:55:20.708Z,100106.88
2022-10-01T00:57:51.655Z,100103.59
2022-10-01T01:00:22.715Z,100104.83
2022-10-01T01:02:53.961Z,100104.14
2022-10-01T01:05:24.561Z,100105.02
2022-10-01T01:07:56.127Z,100100.51
2022-10-01T01:10:31.348Z,100098.98
2022-10-01T01:13:18.855Z,100097.61
2022-10-01T01:15:57.594Z,100096.23
2022-10-01T01:18:32.675Z,100099.21
2022-10-01T01:21:19.343Z,100095.41
2022-10-01T01:24:28.476Z,100094.03
2022-10-01T01:27:09.633Z,100094.39
2022-10-01T01:29:44.891Z,100092.15
2022-10-01T01:32:20.644Z,100088.66
2022-10-01T01:34:55.969Z,100084.85
2022-10-01T01:37:31.974Z,100089.22
2022-10-01T01:40:04.407Z,100086.96
2022-10-01T01:42:37.511Z,100085.41
2022-10-01T01:45:11.906Z,100086.63
2022-10-01T01:47:44.261Z,100085.27
2022-10-01T01:50:16.808Z,100086.39
2022-10-01T01:52:47.167Z,100081.70
2022-10-01T01:55:17.497Z,100081.55
2022-10-01T01:57:48.278Z,100084.00
2022-10-01T02:00:18.602Z,100081.21
2022-10-01T02:02:54.564Z,100081.91
2022-10-01T02:05:29.189Z,100079.51
2022-10-01T02:08:17.500Z,100073.48
2022-10-01T02:11:06.044Z,100067.95
2022-10-01T02:13:50.237Z,100068.19
2022-10-01T02:16:27.687Z,100064.55
2022-10-01T02:19:03.001Z,100062.63
2022-10-01T02:21:41.073Z,100056.19
2022-10-01T02:24:19.212Z,100052.36
2022-10-01T02:26:51.898Z,100052.22
2022-10-01T02:29:24.892Z,100052.41
2022-10-01T02:31:57.794Z,100048.77
2022-10-01T02:34:31.998Z,100047.58
2022-10-01T02:37:05.206Z,100045.50
2022-10-01T02:39:37.449Z,100046.23
2022-10-01T02:42:09.617Z,100042.24
2022-10-01T02:44:43.272Z,100041.20
2022-10-01T02:47:20.771Z,100039.67
2022-10-01T02:49:52.503Z,100033.60
2022-10-01T02:52:31.316Z,100031.68
2022-10-01T02:55:06.468Z,100037.44
2022-10-01T02:57:36.892Z,100036.58
2022-10-01T03:00:11.848Z,100037.81
2022-10-01T03:02:42.180Z,100038.37
2022-10-01T03:05:12.836Z,100038.54
2022-10-01T03:07:43.812Z,100034.55
2022-10-01T03:10:16.018Z,100039.60
2022-10-01T03:12:46.913Z,100036.84
2022-10-01T03:15:19.482Z,100034.41
2022-10-01T03:17:53.846Z,100040.36
2022-10-01T03:20:24.647Z,100035.23
2022-10-01T03:22:54.908Z,100032.84
2022-10-01T03:25:25.467Z,100035.45
2022-10-01T03:27:55.791Z,100032.49
2022-10-01T03:30:26.934Z,100026.61
2022-10-01T03:32:57.181Z,100018.62
2022-10-01T03:35:27.534Z,100018.80
2022-10-01T03:37:58.532Z,100017.27
2022-10-01T03:40:28.940Z,100019.39
2022-10-01T03:43:08.204Z,100020.98
2022-10-01T03:45:39.494Z,100020.16
2022-10-01T03:48:10.023Z,100020.54
2022-10-01T03:50:40.306Z,100021.12
2022-10-01T03:53:10.618Z,100018.36
2022-10-01T03:55:40.858Z,100020.11
2022-10-01T03:58:11.139Z,100022.39
2022-10-01T04:00:41.811Z,100022.91
2022-10-01T04:03:12.131Z,100015.45
2022-10-01T04:05:42.964Z,100019.98
2022-10-01T04:08:14.055Z,100011.98
2022-10-01T04:10:44.867Z,100011.30
2022-10-01T04:13:15.179Z,100008.36
2022-10-01T04:15:45.787Z,100002.45
2022-10-01T04:18:17.426Z,99997.13
2022-10-01T04:20:48.061Z,100002.02
2022-10-01T04:23:18.413Z,100004.61
2022-10-01T04:25:48.642Z,100005.52
2022-10-01T04:28:19.344Z,100004.34
2022-10-01T04:31:09.647Z,99999.30
2022-10-01T04:33:39.955Z,100002.27
2022-10-01T04:36:10.215Z,100004.91
2022-10-01T04:38:40.567Z,100003.19
2022-10-01T04:41:11.043Z,100004.07
2022-10-01T04:43:41.498Z,100000.95
2022-10-01T04:46:11.843Z,100003.23
2022-10-01T04:48:42.223Z,100004.98
2022-10-01T04:51:12.496Z,100006.36
2022-10-01T04:53:42.800Z,100004.63
2022-10-01T04:56:13.193Z,100003.26
2022-10-01T04:58:43.391Z,100003.23
2022-10-01T05:01:13.672Z,100002.38
2022-10-01T05:03:43.904Z,99999.95
2022-10-01T05:06:14.132Z,100003.92
2022-10-01T05:08:44.407Z,100000.10
2022-10-01T05:11:14.730Z,99996.80
2022-10-01T05:13:45.300Z,99995.76
2022-10-01T05:16:15.555Z,99995.58
2022-10-01T05:18:46.033Z,99992.61
2022-10-01T05:21:16.842Z,99997.29
2022-10-01T05:23:47.126Z,99996.23
2022-10-01T05:26:17.367Z,99997.78
2022-10-01T05:28:47.592Z,99997.77
2022-10-01T05:31:18.806Z,100000.19
2022-10-01T05:33:49.124Z,100000.35
2022-10-01T05:36:19.523Z,99997.38
2022-10-01T05:38:52.503Z,100002.23
2022-10-01T05:41:22.747Z,100002.05
2022-10-01T05:43:53.037Z,100000.30
2022-10-01T05:46:23.307Z,100001.66
2022-10-01T05:48:53.562Z,99997.45
2022-10-01T05:51:24.297Z,99994.15
2022-10-01T05:53:56.290Z,99989.95
2022-10-01T05:56:26.669Z,99989.38
2022-10-01T05:58:56.909Z,99986.55
2022-10-01T06:01:27.613Z,99985.66
2022-10-01T06:03:58.064Z,99992.25
2022-10-01T06:06:29.235Z,99988.04
2022-10-01T06:09:00.323Z,99987.66
2022-10-01T06:11:30.586Z,99987.80
2022-10-01T06:14:01.903Z,99987.25
2022-10-01T06:16:32.176Z,99985.81
2022-10-01T06:19:02.931Z,99991.34
2022-10-01T06:21:33.453Z,99986.92
2022-10-01T06:24:04.144Z,99985.48
2022-10-01T06:26:34.445Z,99984.04
2022-10-01T06:29:04.730Z,99985.73
2022-10-01T06:31:35.346Z,99979.05
2022-10-01T06:34:06.058Z,99979.57
2022-10-01T06:36:37.353Z,99979.21
2022-10-01T06:39:07.736Z,99976.75
2022-10-01T06:41:38.093Z,99978.61
2022-10-01T06:44:08.550Z,99978.16
2022-10-01T06:46:38.849Z,99978.61
2022-10-01T06:49:09.332Z,99973.80
2022-10-01T06:51:56.360Z,99978.94
2022-10-01T06:54:27.355Z,99981.61
2022-10-01T06:56:57.587Z,99972.44
2022-10-01T06:59:28.278Z,99970.39
2022-10-01T07:01:58.567Z,99972.36
2022-10-01T07:04:30.163Z,99972.23
2022-10-01T07:07:00.400Z,99968.94
2022-10-01T07:09:30.691Z,99956.59
2022-10-01T07:12:00.941Z,99949.79
2022-10-01T07:14:31.183Z,99952.08
2022-10-01T07:17:01.582Z,99955.91
2022-10-01T07:19:32.817Z,99950.66
2022-10-01T07:22:03.046Z,99947.52
2022-10-01T07:24:33.579Z,99939.82
2022-10-01T07:27:07.410Z,99936.27
2022-10-01T07:29:38.013Z,99933.64
2022-10-01T07:32:10.564Z,99927.86
2022-10-01T07:34:41.824Z,99930.14
2022-10-01T07:37:12.311Z,99924.92
2022-10-01T07:39:42.678Z,99927.80
2022-10-01T07:42:12.941Z,99928.68
2022-10-01T07:44:43.285Z,99929.42
2022-10-01T07:47:15.353Z,99926.27
2022-10-01T07:49:45.658Z,99924.70
2022-10-01T07:52:15.915Z,99928.36
2022-10-01T07:54:48.044Z,99926.58
2022-10-01T07:57:18.886Z,99929.67
2022-10-01T07:59:53.497Z,99924.21
2022-10-01T08:02:26.916Z,99926.97
2022-10-01T08:05:14.796Z,99925.20
2022-10-01T08:07:45.215Z,99920.23
2022-10-01T08:10:17.526Z,99918.95
2022-10-01T08:12:48.202Z,99916.29
2022-10-01T08:15:19.632Z,99908.16
2022-10-01T08:17:49.856Z,99908.27
2022-10-01T08:20:21.585Z,99905.71
2022-10-01T08:22:51.918Z,99899.98
2022-10-01T08:25:22.310Z,99901.64
2022-10-01T08:27:53.904Z,99898.89
2022-10-01T08:30:24.339Z,99893.38
2022-10-01T08:32:57.994Z,99886.79
2022-10-01T08:35:30.158Z,99882.98
2022-10-01T08:38:05.818Z,99882.32
2022-10-01T08:40:42.321Z,99875.65
2022-10-01T08:43:24.250Z,99872.52
2022-10-01T08:45:59.993Z,99868.33
2022-10-01T08:48:44.670Z,99854.29
2022-10-01T08:51:24.312Z,99846.83
2022-10-01T08:53:58.609Z,99840.26
2022-10-01T08:56:33.056Z,99841.90
2022-10-01T08:59:14.359Z,99833.98
2022-10-01T09:01:44.727Z,99834.26
2022-10-01T09:04:15.169Z,99835.73
2022-10-01T09:06:49.983Z,99827.25
2022-10-01T09:09:33.821Z,99824.74
2022-10-01T09:12:21.053Z,99823.25
2022-10-01T09:15:07.975Z,99818.86
2022-10-01T09:17:53.320Z,99814.27
2022-10-01T09:20:30.269Z,99811.86
2022-10-01T09:23:14.794Z,99805.54
2022-10-01T09:25:50.331Z,99805.36
2022-10-01T09:28:23.640Z,99795.61
2022-10-01T09:30:58.382Z,99795.41
2022-10-01T09:33:34.646Z,99790.63
2022-10-01T09:36:16.484Z,99789.75
2022-10-01T09:38:52.843Z,99790.16
2022-10-01T09:41:23.208Z,99789.74
2022-10-01T09:43:53.482Z,99788.63
2022-10-01T09:46:29.053Z,99779.52
2022-10-01T09:49:05.056Z,99777.17
2022-10-01T09:51:41.839Z,99776.88
2022-10-01T09:54:15.181Z,99768.73
2022-10-01T09:56:50.980Z,99763.27
2022-10-01T09:59:24.945Z,99756.13
2022-10-01T10:01:59.045Z,99758.98
2022-10-01T10:04:29.605Z,99753.52
2022-10-01T10:07:05.999Z,99749.31
2022-10-01T10:09:38.346Z,99754.47
2022-10-01T10:12:18.648Z,99745.05
2022-10-01T10:14:49.020Z,99744.96
2022-10-01T10:17:21.247Z,99748.09
2022-10-01T10:19:53.768Z,99743.62
2022-10-01T10:22:27.063Z,99734.22
2022-10-01T10:24:59.330Z,99732.88
2022-10-01T10:27:31.548Z,99729.27
2022-10-01T10:30:08.718Z,99727.84
2022-10-01T10:32:39.119Z,99718.89
2022-10-01T10:35:14.293Z,99713.21
2022-10-01T10:37:49.770Z,99707.84
2022-10-01T10:40:28.483Z,99702.52
2022-10-01T10:43:01.385Z,99702.80
2022-10-01T10:45:38.021Z,99696.80
2022-10-01T10:48:16.909Z,99688.50
2022-10-01T10:50:49.765Z,99691.44
2022-10-01T10:53:24.858Z,99688.50
2022-10-01T10:56:01.167Z,99681.00
2022-10-01T10:58:33.335Z,99670.29
2022-10-01T11:01:09.713Z,99668.00
2022-10-01T11:03:45.931Z,99668.27
2022-10-01T11:06:18.581Z,99662.17
2022-10-01T11:08:58.714Z,99662.36
2022-10-01T11:11:45.591Z,99660.17
2022-10-01T11:14:30.696Z,99656.13
2022-10-01T11:17:23.306Z,99649.83
2022-10-01T11:20:21.333Z,99642.15
2022-10-01T11:23:06.468Z,99630.79
2022-10-01T11:25:47.579Z,99633.56
2022-10-01T11:28:30.620Z,99630.39
2022-10-01T11:31:11.867Z,99631.16
2022-10-01T11:33:51.474Z,99632.08
2022-10-01T11:36:29.067Z,99629.52
2022-10-01T11:39:03.595Z,99631.18
2022-10-01T11:41:39.655Z,99628.27
2022-10-01T11:44:18.191Z,99624.42
2022-10-01T11:46:58.582Z,99627.34
2022-10-01T11:49:50.581Z,99626.81
2022-10-01T11:52:33.923Z,99623.85
2022-10-01T11:55:35.361Z,99621.20
2022-10-01T11:58:31.797Z,99612.31
2022-10-01T12:01:10.774Z,99612.86
2022-10-01T12:03:51.944Z,99610.85
2022-10-01T12:06:32.998Z,99612.90
2022-10-01T12:09:10.677Z,99612.48
2022-10-01T12:11:43.629Z,99612.24
2022-10-01T12:14:18.610Z,99606.64
2022-10-01T12:16:53.281Z,99604.06
2022-10-01T12:19:28.890Z,99599.66
2022-10-01T12:22:06.164Z,99595.43
2022-10-01T12:24:41.135Z,99592.40
2022-10-01T12:27:37.088Z,99588.98
2022-10-01T12:30:23.036Z,99583.21
2022-10-01T12:33:08.414Z,99574.60
2022-10-01T12:35:51.224Z,99565.17
2022-10-01T12:38:32.839Z,99555.84
2022-10-01T12:41:13.705Z,99558.47
2022-10-01T12:43:58.418Z,99556.95
2022-10-01T12:46:40.348Z,99553.56
2022-10-01T12:49:24.110Z,99543.09
2022-10-01T12:52:01.372Z,99543.54
2022-10-01T12:54:42.934Z,99538.31
2022-10-01T12:57:32.989Z,99539.95
2022-10-01T13:00:11.156Z,99543.49
2022-10-01T13:02:59.283Z,99546.61
2022-10-01T13:05:39.329Z,99544.38
2022-10-01T13:08:28.039Z,99544.08
2022-10-01T13:11:05.593Z,99540.84
2022-10-01T13:13:38.327Z,99538.81
2022-10-01T13:16:19.274Z,99527.67
2022-10-01T13:19:03.319Z,99532.08
2022-10-01T13:21:53.452Z,99531.29
2022-10-01T13:24:31.406Z,99533.65
2022-10-01T13:27:07.426Z,99526.64
2022-10-01T13:29:50.660Z,99526.06
2022-10-01T13:32:29.923Z,99530.23
2022-10-01T13:35:03.745Z,99524.75
2022-10-01T13:37:40.474Z,99514.70
2022-10-01T13:40:22.428Z,99520.02
2022-10-01T13:42:55.260Z,99514.46
2022-10-01T13:45:29.351Z,99511.79
2022-10-01T13:48:19.095Z,99504.56
2022-10-01T13:51:05.067Z,99504.41
2022-10-01T13:53:39.169Z,99502.79
2022-10-01T13:56:11.711Z,99495.85
2022-10-01T13:58:43.080Z,99495.57
2022-10-01T14:01:31.518Z,99491.29
2022-10-01T14:04:16.207Z,99495.84
2022-10-01T14:06:53.502Z,99485.33
2022-10-01T14:09:27.232Z,99484.80
2022-10-01T14:12:27.391Z,99483.05
2022-10-01T14:15:17.698Z,99484.64
2022-10-01T14:17:53.257Z,99481.60
2022-10-01T14:20:29.858Z,99479.44
2022-10-01T14:23:11.837Z,99476.17
2022-10-01T14:25:53.514Z,99475.19
2022-10-01T14:28:46.087Z,99468.77
2022-10-01T14:31:25.191Z,99471.22
2022-10-01T14:34:18.944Z,99470.48
2022-10-01T14:36:51.944Z,99464.05
2022-10-01T14:39:24.214Z,99462.02
2022-10-01T14:41:56.830Z,99463.02
2022-10-01T14:44:29.653Z,99462.95
2022-10-01T14:47:01.132Z,99469.60
2022-10-01T14:49:32.624Z,99480.05
2022-10-01T14:52:05.464Z,99488.55
2022-10-01T14:54:44.670Z,99497.13
2022-10-01T14:57:19.399Z,99511.30
2022-10-01T14:59:50.985Z,99518.08
2022-10-01T15:02:23.165Z,99520.42
2022-10-01T15:04:56.705Z,99517.74
2022-10-01T15:07:32.905Z,99514.09
2022-10-01T15:10:10.434Z,99512.64
2022-10-01T15:12:43.286Z,99518.36
2022-10-01T15:15:23.001Z,99521.34
2022-10-01T15:17:54.391Z,99528.74
2022-10-01T15:20:25.047Z,99529.28
2022-10-01T15:23:00.526Z,99530.73
2022-10-01T15:25:33.252Z,99529.88
2022-10-01T15:28:13.945Z,99525.23
2022-10-01T15:30:45.808Z,99521.08
2022-10-01T15:33:27.503Z,99524.13
2022-10-01T15:36:00.756Z,99521.83
2022-10-01T15:38:32.654Z,99523.16
2022-10-01T15:41:29.795Z,99528.64
2022-10-01T15:43:56.094Z,99523.96
2022-10-01T15:46:33.499Z,99527.04
2022-10-01T15:49:20.484Z,99519.97
2022-10-01T15:52:13.107Z,99511.66
2022-10-01T15:54:45.445Z,99510.58
2022-10-01T15:57:21.904Z,99513.31
2022-10-01T15:59:55.305Z,99502.98
2022-10-01T16:02:29.630Z,99505.81
2022-10-01T16:05:07.192Z,99500.38
2022-10-01T16:07:39.467Z,99496.72
2022-10-01T16:10:29.129Z,99499.35
2022-10-01T16:13:02.576Z,99496.95
2022-10-01T16:15:33.520Z,99500.66
2022-10-01T16:18:05.073Z,99497.72
2022-10-01T16:20:39.246Z,99494.13
2022-10-01T16:23:43.970Z,99497.64
2022-10-01T16:26:33.612Z,99498.85
2022-10-01T16:29:07.109Z,99496.69
2022-10-01T16:31:41.200Z,99496.48
2022-10-01T16:34:16.387Z,99498.90
2022-10-01T16:36:47.090Z,99497.95
2022-10-01T16:39:19.762Z,99497.38
2022-10-01T16:42:11.942Z,99497.46
2022-10-01T16:44:41.956Z,99502.48
2022-10-01T16:47:13.955Z,99499.20
2022-10-01T16:49:44.186Z,99499.61
2022-10-01T16:52:17.600Z,99502.31
2022-10-01T16:54:47.904Z,99502.88
2022-10-01T16:57:18.775Z,99502.41
2022-10-01T16:59:48.993Z,99498.24
2022-10-01T17:02:19.726Z,99498.65
2022-10-01T17:04:50.000Z,99500.26
2022-10-01T17:07:20.249Z,99499.59
2022-10-01T17:09:50.494Z,99505.58
2022-10-01T17:12:20.837Z,99511.11
2022-10-01T17:14:51.169Z,99506.80
2022-10-01T17:17:21.419Z,99509.98
2022-10-01T17:19:51.698Z,99510.92
2022-10-01T17:22:24.075Z,99510.23
2022-10-01T17:24:54.382Z,99510.09
2022-10-01T17:27:24.731Z,99514.52
2022-10-01T17:29:56.449Z,99511.44
2022-10-01T17:32:26.865Z,99507.31
2022-10-01T17:34:57.136Z,99515.55
2022-10-01T17:37:27.458Z,99514.00
2022-10-01T17:39:57.830Z,99517.22
2022-10-01T17:42:28.111Z,99515.88
2022-10-01T17:44:58.378Z,99515.59
2022-10-01T17:47:28.621Z,99521.52
2022-10-01T17:49:58.822Z,99519.13
2022-10-01T17:52:29.461Z,99521.77
2022-10-01T17:54:59.712Z,99521.98
2022-10-01T17:57:29.982Z,99525.50
2022-10-01T18:00:00.270Z,99526.62
2022-10-01T18:02:47.042Z,99527.17
2022-10-01T18:05:17.612Z,99529.83
2022-10-01T18:07:47.950Z,99529.52
2022-10-01T18:10:18.320Z,99533.36
2022-10-01T18:12:48.897Z,99537.57
2022-10-01T18:15:20.997Z,99538.45
2022-10-01T18:18:38.122Z,99536.36
2022-10-01T18:20:43.176Z,99539.16
2022-10-01T18:23:14.000Z,99544.05
2022-10-01T18:25:44.303Z,99553.14
2022-10-01T18:28:14.682Z,99561.91
2022-10-01T18:30:45.036Z,99557.05
2022-10-01T18:33:15.945Z,99556.20
2022-10-01T18:35:47.955Z,99552.20
2022-10-01T18:38:25.702Z,99549.05
2022-10-01T18:41:02.870Z,99548.52
2022-10-01T18:43:37.521Z,99544.13
2022-10-01T18:46:18.216Z,99543.93
2022-10-01T18:49:04.453Z,99544.96
2022-10-01T18:51:52.806Z,99548.96
2022-10-01T18:54:43.163Z,99545.81
2022-10-01T18:57:29.560Z,99547.29
2022-10-01T19:00:12.684Z,99550.34
2022-10-01T19:03:01.438Z,99546.69
2022-10-01T19:05:52.140Z,99546.03
2022-10-01T19:08:36.373Z,99544.81
2022-10-01T19:11:18.155Z,99547.98
2022-10-01T19:13:59.553Z,99548.20
2022-10-01T19:16:42.541Z,99549.61
2022-10-01T19:19:28.630Z,99550.66
2022-10-01T19:22:03.183Z,99552.04
2022-10-01T19:24:55.426Z,99551.66
2022-10-01T19:27:44.781Z,99550.10
2022-10-01T19:30:17.493Z,99554.27
2022-10-01T19:32:54.811Z,99554.79
2022-10-01T19:35:31.864Z,99555.98
2022-10-01T19:38:04.306Z,99555.29
2022-10-01T19:40:41.212Z,99555.20
2022-10-01T19:43:20.238Z,99559.60
2022-10-01T19:45:55.783Z,99563.80
2022-10-01T19:48:32.317Z,99567.48
2022-10-01T19:51:08.470Z,99565.55
2022-10-01T19:53:41.813Z,99567.17
2022-10-01T19:56:18.706Z,99569.31
2022-10-01T19:58:49.121Z,99565.35
2022-10-01T20:01:23.495Z,99568.72
2022-10-01T20:03:58.716Z,99575.24
2022-10-01T20:06:33.413Z,99577.55
2022-10-01T20:09:09.347Z,99573.91
2022-10-01T20:11:46.703Z,99579.02
2022-10-01T20:14:47.183Z,99579.38
2022-10-01T20:17:25.627Z,99578.14
2022-10-01T20:20:02.542Z,99579.71
2022-10-01T20:22:41.089Z,99577.08
2022-10-01T20:25:16.848Z,99581.63
2022-10-01T20:27:55.982Z,99581.26
2022-10-01T20:30:28.732Z,99580.73
2022-10-01T20:33:04.307Z,99579.48
2022-10-01T20:35:45.656Z,99580.16
2022-10-01T20:38:20.634Z,99583.16
2022-10-01T20:40:56.143Z,99581.23
2022-10-01T20:43:34.090Z,99583.17
2022-10-01T20:46:10.339Z,99583.68
2022-10-01T20:48:46.294Z,99588.59
2022-10-01T20:51:19.194Z,99590.35
2022-10-01T20:53:55.199Z,99589.34
2022-10-01T20:56:31.582Z,99595.92
2022-10-01T20:59:08.137Z,99594.73
2022-10-01T21:01:46.504Z,99591.87
2022-10-01T21:04:21.823Z,99595.83
2022-10-01T21:06:57.606Z,99598.70
2022-10-01T21:09:34.612Z,99602.43
2022-10-01T21:12:06.703Z,99603.39
2022-10-01T21:14:42.964Z,99602.30
2022-10-01T21:17:36.786Z,99603.42
2022-10-01T21:20:27.770Z,99601.76
2022-10-01T21:23:13.333Z,99606.36
2022-10-01T21:25:56.974Z,99606.16
2022-10-01T21:28:48.498Z,99613.11
2022-10-01T21:31:30.987Z,99621.99
2022-10-01T21:34:08.175Z,99621.11
2022-10-01T21:36:47.905Z,99619.82
2022-10-01T21:39:25.496Z,99623.61
2022-10-01T21:42:05.143Z,99626.71
2022-10-01T21:45:05.167Z,99627.20
2022-10-01T21:47:50.449Z,99626.79
2022-10-01T21:50:35.451Z,99629.19
2022-10-01T21:53:28.774Z,99632.11
2022-10-01T21:56:15.262Z,99635.57
2022-10-01T21:58:59.653Z,99635.70
2022-10-01T22:01:50.658Z,99634.80
2022-10-01T22:04:32.849Z,99637.77
2022-10-01T22:07:11.758Z,99643.16
2022-10-01T22:09:50.670Z,99647.54
2022-10-01T22:12:21.918Z,99648.91
2022-10-01T22:14:55.128Z,99652.79
2022-10-01T22:17:29.128Z,99658.34
2022-10-01T22:20:04.994Z,99664.65
2022-10-01T22:22:38.551Z,99668.01
2022-10-01T22:25:13.660Z,99669.04
2022-10-01T22:27:49.847Z,99671.13
2022-10-01T22:30:22.214Z,99674.45
2022-10-01T22:33:00.206Z,99678.65
2022-10-01T22:35:33.828Z,99682.66
2022-10-01T22:38:11.273Z,99684.90
2022-10-01T22:40:47.228Z,99688.20
2022-10-01T22:43:17.578Z,99686.74
2022-10-01T22:46:05.521Z,99690.40
2022-10-01T22:48:49.578Z,99690.36
2022-10-01T22:51:36.755Z,99697.86
2022-10-01T22:54:31.324Z,99696.21
2022-10-01T22:57:13.299Z,99700.88
2022-10-01T22:59:51.595Z,99706.08
2022-10-01T23:02:30.226Z,99709.14
2022-10-01T23:05:12.934Z,99708.69
2022-10-01T23:07:55.302Z,99715.23
2022-10-01T23:10:33.084Z,99718.78
2022-10-01T23:13:12.795Z,99725.14
2022-10-01T23:15:51.786Z,99728.39
2022-10-01T23:18:35.270Z,99728.30
2022-10-01T23:21:19.617Z,99737.83
2022-10-01T23:23:58.530Z,99747.00
2022-10-01T23:26:37.062Z,99751.79
2022-10-01T23:29:20.872Z,99751.66
2022-10-01T23:32:01.062Z,99756.66
2022-10-01T23:34:42.630Z,99757.80
2022-10-01T23:37:42.018Z,99760.83
2022-10-01T23:40:15.342Z,99764.38
2022-10-01T23:42:53.944Z,99773.69
2022-10-01T23:45:29.566Z,99782.73
2022-10-01T23:48:04.736Z,99785.34
2022-10-01T23:50:40.973Z,99787.27
2022-10-01T23:53:18.440Z,99787.85
2022-10-01T23:56:19.690Z,99796.45
2022-10-01T23:58:54.435Z,99794.93
